createdAt,value
2024-01-11T00:00:33.693Z,98468.69
2024-01-11T00:03:05.277Z,98475.34
2024-01-11T00:05:32.113Z,98468.44
2024-01-11T00:07:58.831Z,98467.66
2024-01-11T00:10:25.676Z,98473.88
2024-01-11T00:12:52.512Z,98466.66
2024-01-11T00:15:19.226Z,98468.72
2024-01-11T00:17:46.258Z,98459.16
2024-01-11T00:20:13.190Z,98464.97
2024-01-11T00:22:40.032Z,98465.56
2024-01-11T00:25:06.907Z,98472.13
2024-01-11T00:27:33.631Z,98466.66
2024-01-11T00:30:00.341Z,98470.97
2024-01-11T00:32:27.240Z,98469.09
2024-01-11T00:34:54.105Z,98479.03
2024-01-11T00:37:20.941Z,98475.91
2024-01-11T00:39:47.645Z,98472.28
2024-01-11T00:42:14.318Z,98477.53
2024-01-11T00:44:41.790Z,98471.16
2024-01-11T00:47:08.807Z,98474.88
2024-01-11T00:49:35.807Z,98467.75
2024-01-11T00:52:02.593Z,98462.63
2024-01-11T00:54:29.331Z,98472.56
2024-01-11T00:56:55.938Z,98467.94
2024-01-11T00:59:22.695Z,98468.03
2024-01-11T01:01:50.032Z,98470.69
2024-01-11T01:04:16.933Z,98468.88
2024-01-11T01:06:44.367Z,98471.84
2024-01-11T01:09:11.146Z,98466.75
2024-01-11T01:11:38.096Z,98470.19
2024-01-11T01:14:04.768Z,98471.91
2024-01-11T01:16:31.456Z,98476.22
2024-01-11T01:18:58.365Z,98485.25
2024-01-11T01:21:25.081Z,98482.56
2024-01-11T01:23:51.744Z,98473.78
2024-01-11T01:26:18.531Z,98481.50
2024-01-11T01:28:45.193Z,98484.22
2024-01-11T01:31:11.982Z,98489.53
2024-01-11T01:33:38.831Z,98490.88
2024-01-11T01:36:10.173Z,98498.88
2024-01-11T01:38:36.886Z,98494.31
2024-01-11T01:41:03.984Z,98493.53
2024-01-11T01:43:30.672Z,98499.66
2024-01-11T01:45:57.830Z,98513.81
2024-01-11T01:48:24.755Z,98515.41
2024-01-11T01:50:51.829Z,98508.28
2024-01-11T01:53:23.220Z,98504.31
2024-01-11T01:55:51.110Z,98498.72
2024-01-11T01:58:19.419Z,98501.97
2024-01-11T02:00:47.072Z,98499.53
2024-01-11T02:03:15.998Z,98493.66
2024-01-11T02:05:43.863Z,98493.34
2024-01-11T02:08:16.664Z,98502.25
2024-01-11T02:10:44.183Z,98505.72
2024-01-11T02:13:11.285Z,98512.06
2024-01-11T02:15:38.139Z,98510.59
2024-01-11T02:18:05.142Z,98509.50
2024-01-11T02:20:32.800Z,98515.88
2024-01-11T02:23:06.490Z,98516.16
2024-01-11T02:25:33.253Z,98513.25
2024-01-11T02:27:59.988Z,98512.81
2024-01-11T02:30:26.716Z,98520.53
2024-01-11T02:32:54.639Z,98513.81
2024-01-11T02:35:22.335Z,98516.00
2024-01-11T02:37:49.857Z,98516.00
2024-01-11T02:40:16.651Z,98509.06
2024-01-11T02:42:43.466Z,98512.25
2024-01-11T02:45:12.310Z,98500.53
2024-01-11T02:47:39.142Z,98504.06
2024-01-11T02:50:09.817Z,98513.72
2024-01-11T02:52:36.640Z,98509.19
2024-01-11T02:55:03.521Z,98504.84
2024-01-11T02:57:30.343Z,98493.72
2024-01-11T02:59:56.952Z,98490.25
2024-01-11T03:02:23.900Z,98491.63
2024-01-11T03:04:50.797Z,98483.94
2024-01-11T03:07:17.535Z,98489.78
2024-01-11T03:09:44.302Z,98495.66
2024-01-11T03:12:10.936Z,98491.13
2024-01-11T03:14:37.776Z,98485.81
2024-01-11T03:17:04.767Z,98485.91
2024-01-11T03:19:31.522Z,98475.72
2024-01-11T03:21:58.712Z,98477.06
2024-01-11T03:24:25.327Z,98467.72
2024-01-11T03:26:51.997Z,98467.78
2024-01-11T03:29:18.735Z,98456.03
2024-01-11T03:31:46.584Z,98465.63
2024-01-11T03:34:13.683Z,98461.88
2024-01-11T03:36:41.386Z,98470.41
2024-01-11T03:39:08.129Z,98458.38
2024-01-11T03:41:35.081Z,98462.94
2024-01-11T03:44:02.094Z,98461.38
2024-01-11T03:46:29.035Z,98462.44
2024-01-11T03:48:57.307Z,98464.03
2024-01-11T03:51:24.048Z,98464.03
2024-01-11T03:53:50.930Z,98463.22
2024-01-11T03:56:17.822Z,98464.59
2024-01-11T03:58:46.478Z,98470.50
2024-01-11T04:01:13.346Z,98467.78
2024-01-11T04:03:40.186Z,98457.19
2024-01-11T04:06:07.852Z,98457.50
2024-01-11T04:08:34.980Z,98452.97
2024-01-11T04:11:07.845Z,98441.25
2024-01-11T04:13:34.664Z,98442.88
2024-01-11T04:16:05.965Z,98457.75
2024-01-11T04:18:32.650Z,98453.06
2024-01-11T04:20:59.501Z,98455.94
2024-01-11T04:23:26.250Z,98459.97
2024-01-11T04:25:53.105Z,98459.97
2024-01-11T04:28:19.832Z,98463.00
2024-01-11T04:30:46.534Z,98473.28
2024-01-11T04:33:13.385Z,98471.72
2024-01-11T04:35:40.123Z,98466.94
2024-01-11T04:38:06.844Z,98460.56
2024-01-11T04:40:33.565Z,98465.88
2024-01-11T04:43:03.038Z,98467.50
2024-01-11T04:45:29.686Z,98470.72
2024-01-11T04:47:56.462Z,98468.06
2024-01-11T04:50:23.624Z,98469.41
2024-01-11T04:52:50.489Z,98471.00
2024-01-11T04:55:17.092Z,98462.25
2024-01-11T04:57:43.926Z,98461.72
2024-01-11T05:00:11.464Z,98467.13
2024-01-11T05:02:38.454Z,98461.25
2024-01-11T05:05:05.620Z,98451.09
2024-01-11T05:07:32.909Z,98453.75
2024-01-11T05:10:00.053Z,98453.63
2024-01-11T05:12:26.659Z,98467.63
2024-01-11T05:14:53.313Z,98474.03
2024-01-11T05:17:19.994Z,98472.97
2024-01-11T05:19:46.701Z,98473.19
2024-01-11T05:22:13.499Z,98473.47
2024-01-11T05:24:40.159Z,98470.31
2024-01-11T05:27:06.826Z,98471.41
2024-01-11T05:29:33.660Z,98466.66
2024-01-11T05:32:00.632Z,98476.50
2024-01-11T05:34:27.481Z,98485.25
2024-01-11T05:36:54.086Z,98494.81
2024-01-11T05:39:20.898Z,98495.91
2024-01-11T05:41:50.970Z,98501.72
2024-01-11T05:44:17.846Z,98496.34
2024-01-11T05:46:45.543Z,98499.06
2024-01-11T05:49:12.556Z,98497.16
2024-01-11T05:51:39.477Z,98506.72
2024-01-11T05:54:06.736Z,98510.22
2024-01-11T05:56:34.128Z,98514.53
2024-01-11T05:59:01.368Z,98502.53
2024-01-11T06:01:28.349Z,98515.59
2024-01-11T06:03:55.110Z,98510.81
2024-01-11T06:06:22.389Z,98513.53
2024-01-11T06:08:49.913Z,98511.16
2024-01-11T06:11:16.653Z,98512.19
2024-01-11T06:13:43.303Z,98512.47
2024-01-11T06:16:13.602Z,98505.56
2024-01-11T06:18:40.725Z,98504.03
2024-01-11T06:21:07.468Z,98515.88
2024-01-11T06:23:34.279Z,98507.22
2024-01-11T06:26:01.155Z,98512.00
2024-01-11T06:28:27.905Z,98517.34
2024-01-11T06:30:54.986Z,98508.84
2024-01-11T06:33:22.089Z,98505.91
2024-01-11T06:35:49.063Z,98505.63
2024-01-11T06:38:15.762Z,98519.00
2024-01-11T06:40:42.789Z,98521.38
2024-01-11T06:43:09.418Z,98518.41
2024-01-11T06:45:36.436Z,98510.97
2024-01-11T06:48:03.503Z,98509.63
2024-01-11T06:50:30.426Z,98513.59
2024-01-11T06:52:57.264Z,98520.75
2024-01-11T06:55:24.176Z,98524.72
2024-01-11T06:57:51.002Z,98520.50
2024-01-11T07:00:17.768Z,98517.63
2024-01-11T07:02:44.507Z,98520.00
2024-01-11T07:05:11.287Z,98526.56
2024-01-11T07:07:38.300Z,98529.56
2024-01-11T07:10:06.850Z,98539.72
2024-01-11T07:12:34.473Z,98539.13
2024-01-11T07:15:01.126Z,98543.97
2024-01-11T07:17:28.163Z,98543.44
2024-01-11T07:19:54.930Z,98550.34
2024-01-11T07:22:21.539Z,98547.69
2024-01-11T07:24:48.183Z,98535.19
2024-01-11T07:27:15.744Z,98549.25
2024-01-11T07:29:42.648Z,98555.34
2024-01-11T07:32:09.659Z,98566.25
2024-01-11T07:34:36.510Z,98573.66
2024-01-11T07:37:03.486Z,98564.53
2024-01-11T07:39:32.261Z,98581.31
2024-01-11T07:41:59.024Z,98574.34
2024-01-11T07:44:25.784Z,98575.41
2024-01-11T07:46:54.541Z,98590.53
2024-01-11T07:49:22.930Z,98587.59
2024-01-11T07:51:50.427Z,98596.84
2024-01-11T07:54:17.341Z,98600.47
2024-01-11T07:56:44.387Z,98603.09
2024-01-11T07:59:16.185Z,98614.69
2024-01-11T08:01:43.405Z,98616.81
2024-01-11T08:04:10.142Z,98612.44
2024-01-11T08:06:36.877Z,98614.44
2024-01-11T08:09:06.069Z,98623.13
2024-01-11T08:11:36.571Z,98611.06
2024-01-11T08:14:07.227Z,98613.13
2024-01-11T08:16:37.511Z,98616.16
2024-01-11T08:19:04.475Z,98614.50
2024-01-11T08:21:31.370Z,98607.97
2024-01-11T08:24:02.578Z,98614.56
2024-01-11T08:26:31.746Z,98620.69
2024-01-11T08:28:58.536Z,98623.34
2024-01-11T08:31:25.726Z,98625.28
2024-01-11T08:33:52.807Z,98627.44
2024-01-11T08:36:19.539Z,98616.13
2024-01-11T08:38:46.341Z,98611.03
2024-01-11T08:41:13.161Z,98607.19
2024-01-11T08:43:40.838Z,98598.53
2024-01-11T08:46:07.553Z,98598.53
2024-01-11T08:48:34.384Z,98599.81
2024-01-11T08:51:01.439Z,98601.34
2024-01-11T08:53:28.290Z,98593.50
2024-01-11T08:55:54.899Z,98588.88
2024-01-11T08:58:21.513Z,98595.16
2024-01-11T09:00:48.257Z,98607.63
2024-01-11T09:03:16.865Z,98614.78
2024-01-11T09:05:43.880Z,98615.09
2024-01-11T09:08:10.628Z,98615.59
2024-01-11T09:10:37.326Z,98619.25
2024-01-11T09:13:04.154Z,98621.03
2024-01-11T09:15:31.060Z,98619.03
2024-01-11T09:17:57.906Z,98615.44
2024-01-11T09:20:24.752Z,98610.09
2024-01-11T09:22:51.359Z,98611.75
2024-01-11T09:25:18.078Z,98614.59
2024-01-11T09:27:44.727Z,98608.91
2024-01-11T09:30:11.935Z,98598.06
2024-01-11T09:32:38.772Z,98599.16
2024-01-11T09:35:06.259Z,98607.00
2024-01-11T09:37:33.623Z,98624.75
2024-01-11T09:40:02.095Z,98620.69
2024-01-11T09:42:29.473Z,98616.34
2024-01-11T09:44:57.806Z,98601.75
2024-01-11T09:47:26.566Z,98610.50
2024-01-11T09:49:56.875Z,98600.66
2024-01-11T09:52:26.912Z,98597.81
2024-01-11T09:54:53.693Z,98597.84
2024-01-11T09:57:36.146Z,98596.25
2024-01-11T10:00:08.749Z,98588.19
2024-01-11T10:02:35.549Z,98578.63
2024-01-11T10:05:02.384Z,98579.53
2024-01-11T10:07:31.872Z,98584.09
2024-01-11T10:09:59.458Z,98577.88
2024-01-11T10:12:26.856Z,98580.53
2024-01-11T10:14:54.079Z,98583.56
2024-01-11T10:17:24.299Z,98583.66
2024-01-11T10:19:54.626Z,98592.63
2024-01-11T10:22:23.223Z,98597.69
2024-01-11T10:24:51.762Z,98593.44
2024-01-11T10:27:18.429Z,98575.59
2024-01-11T10:29:46.575Z,98577.72
2024-01-11T10:32:13.304Z,98570.88
2024-01-11T10:34:42.550Z,98565.09
2024-01-11T10:37:11.776Z,98561.50
2024-01-11T10:39:39.719Z,98574.78
2024-01-11T10:42:09.117Z,98585.78
2024-01-11T10:44:42.017Z,98583.94
2024-01-11T10:47:10.928Z,98584.31
2024-01-11T10:49:42.374Z,98564.22
2024-01-11T10:52:10.104Z,98558.28
2024-01-11T10:54:38.243Z,98555.94
2024-01-11T10:57:06.820Z,98569.75
2024-01-11T10:59:35.350Z,98567.81
2024-01-11T11:02:07.853Z,98561.44
2024-01-11T11:04:36.989Z,98574.09
2024-01-11T11:07:04.535Z,98592.88
2024-01-11T11:09:34.073Z,98582.53
2024-01-11T11:12:02.204Z,98578.91
2024-01-11T11:14:29.815Z,98565.22
2024-01-11T11:16:56.637Z,98549.25
2024-01-11T11:19:23.764Z,98542.41
2024-01-11T11:21:52.081Z,98540.91
2024-01-11T11:24:18.797Z,98544.38
2024-01-11T11:26:45.557Z,98544.25
2024-01-11T11:29:12.358Z,98554.94
2024-01-11T11:31:43.491Z,98570.94
2024-01-11T11:34:13.870Z,98571.13
2024-01-11T11:36:48.029Z,98566.19
2024-01-11T11:39:14.944Z,98557.72
2024-01-11T11:41:44.311Z,98553.63
2024-01-11T11:44:15.379Z,98555.66
2024-01-11T11:46:42.389Z,98557.59
2024-01-11T11:49:11.413Z,98549.84
2024-01-11T11:51:40.510Z,98542.91
2024-01-11T11:54:11.077Z,98552.56
2024-01-11T11:56:38.231Z,98536.53
2024-01-11T11:59:05.139Z,98529.97
2024-01-11T12:01:33.642Z,98530.13
2024-01-11T12:04:00.355Z,98521.09
2024-01-11T12:06:29.262Z,98532.63
2024-01-11T12:08:58.164Z,98533.75
2024-01-11T12:11:25.786Z,98543.56
2024-01-11T12:13:54.681Z,98539.31
2024-01-11T12:16:22.246Z,98537.78
2024-01-11T12:18:50.592Z,98528.63
2024-01-11T12:21:18.082Z,98532.66
2024-01-11T12:23:45.327Z,98523.94
2024-01-11T12:26:16.578Z,98512.72
2024-01-11T12:28:45.433Z,98505.34
2024-01-11T12:31:14.135Z,98497.19
2024-01-11T12:33:42.752Z,98503.47
2024-01-11T12:36:10.307Z,98511.69
2024-01-11T12:38:37.168Z,98507.69
2024-01-11T12:41:05.451Z,98515.97
2024-01-11T12:43:32.515Z,98521.91
2024-01-11T12:45:59.495Z,98504.66
2024-01-11T12:48:26.624Z,98517.97
2024-01-11T12:51:05.808Z,98520.31
2024-01-11T12:53:41.790Z,98514.81
2024-01-11T12:56:12.894Z,98509.97
2024-01-11T12:58:40.042Z,98503.78
2024-01-11T13:01:11.987Z,98513.56
2024-01-11T13:03:48.328Z,98515.41
2024-01-11T13:06:16.703Z,98508.41
2024-01-11T13:08:44.170Z,98503.75
2024-01-11T13:11:10.907Z,98494.25
2024-01-11T13:13:37.719Z,98494.63
2024-01-11T13:16:07.680Z,98484.69
2024-01-11T13:18:34.565Z,98469.53
2024-01-11T13:21:01.399Z,98464.22
2024-01-11T13:23:28.056Z,98465.31
2024-01-11T13:25:54.813Z,98455.66
2024-01-11T13:28:21.431Z,98458.72
2024-01-11T13:30:50.547Z,98468.69
2024-01-11T13:33:19.176Z,98474.88
2024-01-11T13:35:47.225Z,98475.13
2024-01-11T13:38:14.273Z,98480.34
2024-01-11T13:40:41.790Z,98480.97
2024-01-11T13:43:09.084Z,98489.16
2024-01-11T13:45:38.986Z,98490.28
2024-01-11T13:48:07.108Z,98491.41
2024-01-11T13:50:34.865Z,98504.50
2024-01-11T13:53:03.379Z,98514.03
2024-01-11T13:55:39.375Z,98514.75
2024-01-11T13:58:07.118Z,98522.69
2024-01-11T14:00:33.936Z,98527.41
2024-01-11T14:03:00.894Z,98524.94
2024-01-11T14:05:27.845Z,98525.38
2024-01-11T14:08:00.806Z,98513.03
2024-01-11T14:10:28.650Z,98521.50
2024-01-11T14:12:55.836Z,98508.50
2024-01-11T14:15:22.634Z,98501.38
2024-01-11T14:17:50.087Z,98506.66
2024-01-11T14:20:18.356Z,98507.56
2024-01-11T14:22:52.431Z,98509.50
2024-01-11T14:25:21.182Z,98504.63
2024-01-11T14:27:49.417Z,98506.13
2024-01-11T14:30:16.319Z,98516.50
2024-01-11T14:32:43.676Z,98511.97
2024-01-11T14:35:11.653Z,98517.66
2024-01-11T14:37:39.898Z,98513.75
2024-01-11T14:40:12.010Z,98512.97
2024-01-11T14:42:38.854Z,98515.72
2024-01-11T14:45:06.821Z,98512.84
2024-01-11T14:47:34.006Z,98513.97
2024-01-11T14:50:01.307Z,98517.69
2024-01-11T14:52:27.995Z,98511.75
2024-01-11T14:54:54.790Z,98507.88
2024-01-11T14:57:22.486Z,98511.94
2024-01-11T14:59:49.334Z,98517.22
2024-01-11T15:02:16.348Z,98517.09
2024-01-11T15:04:43.786Z,98526.03
2024-01-11T15:07:10.602Z,98531.75
2024-01-11T15:09:40.247Z,98541.22
2024-01-11T15:12:08.808Z,98542.31
2024-01-11T15:14:35.562Z,98534.41
2024-01-11T15:17:03.830Z,98539.34
2024-01-11T15:19:31.049Z,98522.88
2024-01-11T15:21:57.852Z,98519.72
2024-01-11T15:24:24.422Z,98531.44
2024-01-11T15:26:51.275Z,98532.56
2024-01-11T15:29:18.462Z,98523.53
2024-01-11T15:31:47.766Z,98529.09
2024-01-11T15:34:16.195Z,98537.81
2024-01-11T15:36:44.354Z,98544.13
2024-01-11T15:41:42.375Z,98558.22
2024-01-11T15:44:09.425Z,98555.06
2024-01-11T15:46:36.329Z,98552.03
2024-01-11T15:49:03.064Z,98562.31
2024-01-11T15:51:30.310Z,98559.31
2024-01-11T15:53:57.481Z,98553.44
2024-01-11T15:56:24.134Z,98544.13
2024-01-11T15:58:50.856Z,98562.56
2024-01-11T16:01:17.514Z,98564.66
2024-01-11T16:03:45.923Z,98553.59
2024-01-11T16:06:12.878Z,98560.38
2024-01-11T16:08:39.762Z,98558.31
2024-01-11T16:11:06.477Z,98564.97
2024-01-11T16:13:33.116Z,98564.34
2024-01-11T16:16:00.674Z,98561.19
2024-01-11T16:18:27.669Z,98561.16
2024-01-11T16:20:55.971Z,98543.00
2024-01-11T16:23:22.946Z,98555.16
2024-01-11T16:25:50.132Z,98556.75
2024-01-11T16:28:16.860Z,98559.75
2024-01-11T16:30:43.736Z,98569.06
2024-01-11T16:33:11.297Z,98585.78
2024-01-11T16:35:45.094Z,98593.53
2024-01-11T16:38:16.453Z,98596.53
2024-01-11T16:40:43.227Z,98589.41
2024-01-11T16:43:12.794Z,98590.97
2024-01-11T16:45:40.499Z,98588.28
2024-01-11T16:48:11.534Z,98583.53
2024-01-11T16:50:38.584Z,98585.75
2024-01-11T16:53:05.419Z,98584.13
2024-01-11T16:55:33.197Z,98584.41
2024-01-11T16:58:00.958Z,98591.41
2024-01-11T17:00:29.101Z,98590.59
2024-01-11T17:02:59.131Z,98590.25
2024-01-11T17:05:26.154Z,98586.63
2024-01-11T17:07:52.984Z,98583.09
2024-01-11T17:10:19.577Z,98567.28
2024-01-11T17:12:46.618Z,98565.38
2024-01-11T17:15:15.155Z,98567.22
2024-01-11T17:17:42.973Z,98571.41
2024-01-11T17:20:11.767Z,98575.22
2024-01-11T17:22:38.561Z,98572.69
2024-01-11T17:25:05.492Z,98566.47
2024-01-11T17:27:32.278Z,98586.09
2024-01-11T17:29:59.059Z,98590.38
2024-01-11T17:32:25.760Z,98598.00
2024-01-11T17:34:57.063Z,98600.00
2024-01-11T17:37:23.959Z,98591.94
2024-01-11T17:39:51.466Z,98588.31
2024-01-11T17:42:18.961Z,98585.16
2024-01-11T17:44:45.923Z,98582.88
2024-01-11T17:47:13.677Z,98585.78
2024-01-11T17:49:43.054Z,98586.91
2024-01-11T17:52:10.289Z,98598.00
2024-01-11T17:54:37.063Z,98606.66
2024-01-11T17:57:04.073Z,98611.09
2024-01-11T17:59:30.841Z,98621.84
2024-01-11T18:01:58.021Z,98611.28
2024-01-11T18:04:24.838Z,98612.25
2024-01-11T18:06:52.067Z,98616.22
2024-01-11T18:09:18.957Z,98621.09
2024-01-11T18:11:46.170Z,98620.78
2024-01-11T18:14:13.401Z,98613.41
2024-01-11T18:16:40.181Z,98615.94
2024-01-11T18:19:08.906Z,98607.84
2024-01-11T18:21:35.844Z,98607.69
2024-01-11T18:24:02.542Z,98610.97
2024-01-11T18:26:29.255Z,98610.31
2024-01-11T18:28:56.130Z,98609.69
2024-01-11T18:31:23.890Z,98612.88
2024-01-11T18:33:53.287Z,98615.38
2024-01-11T18:36:24.591Z,98612.09
2024-01-11T18:38:54.220Z,98615.25
2024-01-11T18:41:22.299Z,98612.88
2024-01-11T18:43:49.156Z,98612.34
2024-01-11T18:46:17.405Z,98613.94
2024-01-11T18:48:44.136Z,98608.06
2024-01-11T18:51:11.000Z,98608.19
2024-01-11T18:53:37.803Z,98616.59
2024-01-11T18:56:04.832Z,98610.38
2024-01-11T18:58:31.698Z,98609.13
2024-01-11T19:00:58.505Z,98604.66
2024-01-11T19:03:25.492Z,98602.47
2024-01-11T19:05:52.715Z,98601.88
2024-01-11T19:08:19.670Z,98608.03
2024-01-11T19:10:46.349Z,98607.75
2024-01-11T19:13:13.029Z,98606.41
2024-01-11T19:15:39.797Z,98602.94
2024-01-11T19:18:10.265Z,98609.16
2024-01-11T19:20:37.316Z,98605.00
2024-01-11T19:23:04.559Z,98606.63
2024-01-11T19:25:33.366Z,98609.00
2024-01-11T19:28:02.330Z,98602.69
2024-01-11T19:30:29.834Z,98606.34
2024-01-11T19:32:56.574Z,98594.47
2024-01-11T19:35:23.360Z,98602.91
2024-01-11T19:37:50.521Z,98603.31
2024-01-11T19:40:17.293Z,98606.50
2024-01-11T19:42:43.960Z,98606.50
2024-01-11T19:45:11.180Z,98612.22
2024-01-11T19:47:38.609Z,98612.06
2024-01-11T19:50:06.615Z,98616.81
2024-01-11T19:52:33.397Z,98620.41
2024-01-11T19:55:00.074Z,98614.13
2024-01-11T19:57:26.980Z,98617.41
2024-01-11T19:59:53.823Z,98618.59
2024-01-11T20:02:20.564Z,98624.19
2024-01-11T20:04:47.249Z,98637.97
2024-01-11T20:07:13.991Z,98630.31
2024-01-11T20:09:41.964Z,98642.22
2024-01-11T20:12:09.896Z,98632.13
2024-01-11T20:14:37.415Z,98640.47
2024-01-11T20:17:04.600Z,98649.09
2024-01-11T20:19:32.110Z,98641.97
2024-01-11T20:21:58.949Z,98643.66
2024-01-11T20:24:25.676Z,98645.81
2024-01-11T20:26:52.571Z,98650.59
2024-01-11T20:29:19.666Z,98656.44
2024-01-11T20:31:46.894Z,98654.25
2024-01-11T20:34:16.212Z,98667.03
2024-01-11T20:36:43.416Z,98658.31
2024-01-11T20:39:10.172Z,98650.75
2024-01-11T20:41:44.096Z,98653.16
2024-01-11T20:44:11.728Z,98651.94
2024-01-11T20:46:38.561Z,98646.75
2024-01-11T20:49:05.286Z,98641.09
2024-01-11T20:51:32.066Z,98649.00
2024-01-11T20:53:59.304Z,98647.78
2024-01-11T20:56:27.562Z,98647.53
2024-01-11T20:58:54.332Z,98652.50
2024-01-11T21:01:21.096Z,98661.81
2024-01-11T21:03:47.903Z,98653.66
2024-01-11T21:06:14.961Z,98663.75
2024-01-11T21:08:41.804Z,98664.75
2024-01-11T21:11:09.204Z,98672.91
2024-01-11T21:13:35.998Z,98663.34
2024-01-11T21:16:03.832Z,98658.34
2024-01-11T21:18:31.089Z,98662.63
2024-01-11T21:21:00.428Z,98659.22
2024-01-11T21:23:27.160Z,98662.22
2024-01-11T21:25:53.925Z,98662.63
2024-01-11T21:28:20.620Z,98655.16
2024-01-11T21:30:47.317Z,98665.22
2024-01-11T21:33:16.672Z,98659.41
2024-01-11T21:35:44.151Z,98654.66
2024-01-11T21:38:10.952Z,98656.31
2024-01-11T21:40:40.786Z,98661.31
2024-01-11T21:43:08.765Z,98659.72
2024-01-11T21:45:35.454Z,98663.00
2024-01-11T21:48:02.181Z,98659.47
2024-01-11T21:50:31.957Z,98656.06
2024-01-11T21:52:59.186Z,98650.88
2024-01-11T21:55:26.122Z,98651.03
2024-01-11T21:57:53.090Z,98653.63
2024-01-11T22:00:20.133Z,98657.34
2024-01-11T22:02:47.041Z,98642.44
2024-01-11T22:05:13.826Z,98647.63
2024-01-11T22:07:40.492Z,98658.16
2024-01-11T22:10:08.093Z,98651.59
2024-01-11T22:12:34.833Z,98655.63
2024-01-11T22:15:03.268Z,98650.03
2024-01-11T22:17:31.327Z,98647.44
2024-01-11T22:19:58.157Z,98655.75
2024-01-11T22:22:24.893Z,98649.22
2024-01-11T22:24:51.495Z,98652.56
2024-01-11T22:27:18.159Z,98651.50
2024-01-11T22:29:44.858Z,98642.03
2024-01-11T22:32:11.536Z,98645.38
2024-01-11T22:34:38.278Z,98638.31
2024-01-11T22:37:04.948Z,98633.44
2024-01-11T22:39:31.555Z,98629.81
2024-01-11T22:41:58.190Z,98615.38
2024-01-11T22:44:24.825Z,98623.56
2024-01-11T22:46:51.525Z,98623.00
2024-01-11T22:49:18.111Z,98628.44
2024-01-11T22:51:44.696Z,98616.94
2024-01-11T22:54:11.417Z,98614.22
2024-01-11T22:56:38.737Z,98609.31
2024-01-11T22:59:06.362Z,98608.03
2024-01-11T23:01:33.618Z,98611.97
2024-01-11T23:04:00.301Z,98600.69
2024-01-11T23:06:27.275Z,98614.66
2024-01-11T23:08:54.049Z,98624.28
2024-01-11T23:11:20.884Z,98621.91
2024-01-11T23:13:47.625Z,98622.41
2024-01-11T23:16:14.763Z,98626.81
2024-01-11T23:18:44.339Z,98628.06
2024-01-11T23:21:12.105Z,98620.38
2024-01-11T23:23:38.838Z,98629.53
2024-01-11T23:26:06.518Z,98623.19
2024-01-11T23:28:33.148Z,98638.44
2024-01-11T23:31:00.037Z,98631.06
2024-01-11T23:33:26.923Z,98624.66
2024-01-11T23:35:54.881Z,98638.25
2024-01-11T23:38:21.659Z,98637.25
2024-01-11T23:40:48.402Z,98640.50
2024-01-11T23:43:15.198Z,98639.91
2024-01-11T23:45:42.492Z,98643.31
2024-01-11T23:48:09.309Z,98636.16
2024-01-11T23:50:36.177Z,98636.78
2024-01-11T23:53:02.921Z,98643.78
2024-01-11T23:55:29.620Z,98647.00
2024-01-11T23:57:56.327Z,98641.25
